Погода Нонг-Буа-Лампуна 2 недели

Дансай, Таиланд

22 февраля-05 марта
  • 22февраля
    Сегодня
    +22°
    +37°
    Практически безоблачно
    ВремяПогодаТемператураВлажностьДавлениеВетер, м/сВероятность осадков
    01:00Облачно с прояснениями+25°C64 %736 мм2.0 м/с2 %
    04:00Практически безоблачно+25°C72 %736 мм2.2 м/с2 %
    07:00Ясно и безоблачно+24°C77 %737 мм2.1 м/с2 %
    10:00Ясно и безоблачно+32°C52 %739 мм2.4 м/с2 %
    13:00Практически безоблачно+36°C40 %737 мм2.9 м/с2 %
    16:00Практически безоблачно+36°C38 %736 мм2.0 м/с4 %
    19:00Ясно и безоблачно+31°C55 %736 мм1.8 м/с2 %
    22:00Ясно и безоблачно+27°C64 %737 мм2.1 м/с2 %
  • 23февраля
    Пятница
    +23°
    +37°
    Небольшая облачность
    ВремяПогодаТемператураВлажностьДавлениеВетер, м/сВероятность осадков
    01:00Небольшая облачность+26°C69 %737 мм2.0 м/с2 %
    04:00Небольшая облачность+24°C78 %736 мм1.5 м/с2 %
    07:00Облачно с прояснениями+23°C84 %738 мм1.3 м/с2 %
    10:00Небольшая облачность+32°C57 %740 мм1.9 м/с2 %
    13:00Небольшая облачность+36°C41 %738 мм1.4 м/с2 %
    16:00Небольшая облачность+36°C38 %736 мм1.7 м/с3 %
    19:00Облачно с прояснениями+32°C51 %736 мм2.2 м/с2 %
    22:00Ясно и безоблачно+28°C57 %738 мм1.9 м/с2 %
  • 24февраля
    Суббота
    +23°
    +36°
    Практически безоблачно
    ВремяПогодаТемператураВлажностьДавлениеВетер, м/сВероятность осадков
    01:00Ясно и безоблачно+26°C69 %737 мм2.0 м/с4 %
    04:00Ясно и безоблачно+24°C77 %737 мм1.7 м/с7 %
    07:00Ясно и безоблачно+23°C85 %739 мм1.1 м/с9 %
    10:00Ясно и безоблачно+31°C63 %740 мм1.1 м/с18 %
    13:00Практически безоблачно+36°C52 %739 мм1.8 м/с29 %
    16:00Практически безоблачно+35°C49 %737 мм1.1 м/с31 %
    19:00Практически безоблачно+31°C65 %738 мм1.8 м/с15 %
    22:00Практически безоблачно+27°C75 %739 мм1.5 м/с3 %
  • 25февраля
    Воскресенье
    +22°
    +35°
    Небольшая облачность
    ВремяПогодаТемператураВлажностьДавлениеВетер, м/сВероятность осадков
    01:00Ясно и безоблачно+26°C78 %738 мм2.3 м/с15 %
    04:00Ясно и безоблачно+24°C87 %738 мм1.6 м/с23 %
    07:00Небольшая облачность и лёгкий дождик+24°C86 %740 мм2.6 м/с19 %
    10:00Практически безоблачно+29°C65 %742 мм2.7 м/с17 %
    13:00Небольшая облачность+33°C52 %740 мм2.7 м/с23 %
    16:00Практически безоблачно+34°C49 %738 мм1.7 м/с12 %
    19:00Ясно и безоблачно+30°C65 %738 мм0.8 м/с4 %
    22:00Ясно и безоблачно+27°C74 %739 мм1.8 м/с2 %
  • 26февраля
    Понедельник
    +21°
    +36°
    Ясно и безоблачно
    ВремяПогодаТемператураВлажностьДавлениеВетер, м/сВероятность осадков
    01:00Ясно и безоблачно+25°C78 %738 мм1.4 м/с2 %
    04:00Ясно и безоблачно+24°C81 %738 мм1.9 м/с2 %
    07:00Ясно и безоблачно+22°C83 %740 мм1.1 м/с2 %
    10:00Ясно и безоблачно+30°C53 %741 мм1.4 м/с2 %
    13:00Ясно и безоблачно+34°C44 %739 мм2.0 м/с5 %
    16:00Ясно и безоблачно+34°C45 %737 мм1.9 м/с2 %
    19:00Ясно и безоблачно+30°C60 %737 мм1.8 м/с2 %
    22:00Ясно и безоблачно+27°C72 %738 мм2.0 м/с2 %
Мы используем cookies
Соглашаюсь